createdAt,value
2018-02-09T00:00:26.659Z,22.42
2018-02-09T00:02:52.706Z,22.35
2018-02-09T00:05:18.752Z,22.40
2018-02-09T00:07:44.877Z,22.35
2018-02-09T00:10:10.953Z,22.34
2018-02-09T00:12:37.005Z,22.29
2018-02-09T00:15:03.058Z,22.26
2018-02-09T00:17:29.109Z,22.32
2018-02-09T00:19:55.148Z,22.21
2018-02-09T00:22:21.233Z,22.17
2018-02-09T00:24:47.297Z,22.16
2018-02-09T00:27:13.357Z,22.12
2018-02-09T00:29:39.408Z,22.10
2018-02-09T00:32:05.565Z,22.07
2018-02-09T00:34:31.604Z,22.08
2018-02-09T00:36:57.733Z,22.11
2018-02-09T00:39:23.749Z,22.04
2018-02-09T00:41:49.848Z,22.03
2018-02-09T00:44:15.913Z,22.02
2018-02-09T00:46:41.954Z,22.02
2018-02-09T00:49:08.050Z,22.00
2018-02-09T00:51:34.139Z,22.10
2018-02-09T00:54:00.181Z,21.99
2018-02-09T00:56:26.261Z,21.98
2018-02-09T00:58:52.339Z,21.91
2018-02-09T01:01:18.455Z,21.98
2018-02-09T01:03:44.500Z,21.95
2018-02-09T01:06:10.565Z,21.95
2018-02-09T01:08:36.649Z,21.91
2018-02-09T01:11:02.688Z,21.90
2018-02-09T01:13:28.758Z,21.86
2018-02-09T01:15:54.876Z,21.85
2018-02-09T01:18:21.014Z,21.85
2018-02-09T01:20:47.086Z,21.83
2018-02-09T01:23:13.140Z,21.83
2018-02-09T01:25:39.208Z,21.82
2018-02-09T01:28:05.268Z,21.80
2018-02-09T01:30:31.362Z,21.78
2018-02-09T01:32:57.463Z,21.78
2018-02-09T01:35:23.527Z,21.76
2018-02-09T01:37:49.636Z,21.72
2018-02-09T01:40:15.717Z,21.75
2018-02-09T01:42:41.752Z,21.74
2018-02-09T01:45:07.836Z,21.69
2018-02-09T01:47:33.924Z,21.66
2018-02-09T01:50:00.000Z,21.80
2018-02-09T01:52:26.109Z,21.65
2018-02-09T01:54:52.200Z,21.63
2018-02-09T01:57:18.429Z,21.63
2018-02-09T01:59:44.476Z,21.73
2018-02-09T02:02:10.520Z,21.58
2018-02-09T02:04:36.567Z,21.59
2018-02-09T02:07:02.678Z,21.58
2018-02-09T02:09:28.734Z,21.57
2018-02-09T02:11:54.772Z,21.55
2018-02-09T02:14:20.900Z,21.54
2018-02-09T02:16:46.987Z,21.54
2018-02-09T02:19:13.068Z,21.52
2018-02-09T02:21:39.152Z,21.52
2018-02-09T02:24:05.180Z,21.51
2018-02-09T02:26:31.225Z,21.53
2018-02-09T02:28:57.273Z,21.49
2018-02-09T02:31:23.319Z,21.48
2018-02-09T02:33:49.384Z,21.48
2018-02-09T02:36:15.488Z,21.47
2018-02-09T02:38:41.573Z,21.44
2018-02-09T02:41:07.672Z,21.43
2018-02-09T02:43:33.756Z,21.40
2018-02-09T02:45:59.798Z,21.44
2018-02-09T02:48:25.850Z,21.37
2018-02-09T02:50:51.888Z,21.42
2018-02-09T02:53:17.934Z,21.36
2018-02-09T02:55:44.005Z,21.40
2018-02-09T02:58:10.067Z,21.35
2018-02-09T03:00:36.121Z,21.39
2018-02-09T03:03:02.233Z,21.37
2018-02-09T03:05:28.350Z,21.33
2018-02-09T03:07:54.402Z,21.33
2018-02-09T03:10:20.668Z,21.32
2018-02-09T03:12:46.710Z,21.34
2018-02-09T03:15:12.749Z,21.31
2018-02-09T03:17:38.821Z,21.33
2018-02-09T03:20:04.940Z,21.31
2018-02-09T03:22:31.068Z,21.32
2018-02-09T03:24:57.126Z,21.32
2018-02-09T03:27:23.237Z,21.29
2018-02-09T03:29:49.316Z,21.27
2018-02-09T03:32:15.419Z,21.27
2018-02-09T03:34:41.471Z,21.27
2018-02-09T03:37:07.587Z,21.26
2018-02-09T03:39:33.768Z,21.32
2018-02-09T03:41:59.896Z,21.25
2018-02-09T03:44:25.932Z,21.28
2018-02-09T03:46:52.018Z,21.22
2018-02-09T03:49:18.126Z,21.22
2018-02-09T03:51:44.238Z,21.22
2018-02-09T03:54:10.334Z,21.20
2018-02-09T03:56:36.405Z,21.21
2018-02-09T03:59:02.444Z,21.20
2018-02-09T04:01:28.511Z,21.17
2018-02-09T04:03:54.594Z,21.17
2018-02-09T04:06:20.748Z,21.17
2018-02-09T04:08:46.836Z,21.17
2018-02-09T04:11:12.906Z,21.14
2018-02-09T04:13:39.001Z,21.44
2018-02-09T04:16:05.046Z,21.82
2018-02-09T04:18:31.265Z,22.27
2018-02-09T04:20:57.371Z,22.47
2018-02-09T04:23:23.415Z,22.85
2018-02-09T04:25:49.452Z,22.53
2018-02-09T04:28:15.585Z,22.59
2018-02-09T04:30:41.642Z,22.89
2018-02-09T04:33:07.681Z,22.92
2018-02-09T04:35:33.734Z,22.54
2018-02-09T04:37:59.788Z,21.99
2018-02-09T04:40:25.837Z,21.64
2018-02-09T04:42:51.912Z,21.48
2018-02-09T04:45:17.996Z,21.39
2018-02-09T04:47:44.081Z,21.35
2018-02-09T04:50:10.150Z,21.22
2018-02-09T04:52:36.266Z,21.18
2018-02-09T04:55:02.376Z,21.17
2018-02-09T04:57:28.424Z,21.20
2018-02-09T04:59:54.512Z,21.15
2018-02-09T05:02:20.567Z,21.14
2018-02-09T05:04:46.648Z,21.13
2018-02-09T05:07:12.765Z,21.17
2018-02-09T05:09:38.808Z,21.25
2018-02-09T05:12:04.893Z,21.19
2018-02-09T05:14:30.936Z,21.12
2018-02-09T05:16:57.030Z,21.14
2018-02-09T05:19:23.087Z,21.17
2018-02-09T05:21:49.145Z,21.16
2018-02-09T05:24:15.307Z,21.32
2018-02-09T05:26:41.362Z,21.48
2018-02-09T05:29:07.440Z,21.42
2018-02-09T05:31:33.568Z,21.35
2018-02-09T05:33:59.612Z,21.35
2018-02-09T05:36:25.658Z,21.38
2018-02-09T05:38:51.756Z,21.33
2018-02-09T05:41:17.879Z,21.35
2018-02-09T05:43:44.012Z,21.39
2018-02-09T05:46:10.057Z,21.35
2018-02-09T05:48:36.125Z,21.36
2018-02-09T05:51:02.196Z,21.37
2018-02-09T05:53:28.301Z,21.34
2018-02-09T05:55:54.386Z,21.33
2018-02-09T05:58:20.438Z,21.29
2018-02-09T06:00:46.544Z,21.33
2018-02-09T06:03:12.556Z,21.28
2018-02-09T06:05:38.596Z,21.27
2018-02-09T06:08:04.637Z,21.23
2018-02-09T06:10:30.688Z,21.22
2018-02-09T06:12:56.747Z,20.93
2018-02-09T06:15:22.867Z,19.86
2018-02-09T06:17:48.948Z,19.30
2018-02-09T06:20:15.116Z,18.87
2018-02-09T06:22:41.144Z,18.56
2018-02-09T06:25:07.233Z,18.36
2018-02-09T06:27:33.303Z,18.08
2018-02-09T06:29:59.346Z,19.38
2018-02-09T06:32:25.421Z,19.65
2018-02-09T06:34:51.616Z,19.52
2018-02-09T06:37:17.671Z,18.39
2018-02-09T06:39:43.755Z,18.21
2018-02-09T06:42:09.831Z,17.50
2018-02-09T06:44:36.009Z,17.00
2018-02-09T06:47:02.040Z,17.30
2018-02-09T06:49:28.095Z,18.73
2018-02-09T06:51:54.145Z,17.34
2018-02-09T06:54:20.356Z,16.51
2018-02-09T06:56:46.521Z,16.55
2018-02-09T06:59:12.621Z,16.50
2018-02-09T07:01:38.673Z,16.62
2018-02-09T07:04:04.720Z,17.89
2018-02-09T07:06:30.860Z,18.79
2018-02-09T07:08:57.279Z,18.63
2018-02-09T07:11:23.428Z,18.69
2018-02-09T07:13:49.528Z,18.79
2018-02-09T07:16:15.628Z,18.69
2018-02-09T07:18:41.909Z,18.82
2018-02-09T07:21:08.029Z,18.72
2018-02-09T07:23:34.160Z,18.92
2018-02-09T07:26:00.284Z,18.94
2018-02-09T07:28:26.401Z,19.13
2018-02-09T07:30:52.499Z,19.04
2018-02-09T07:33:18.595Z,19.37
2018-02-09T07:35:44.660Z,19.32
2018-02-09T07:38:10.836Z,19.40
2018-02-09T07:40:39.270Z,19.42
2018-02-09T07:43:05.392Z,19.51
2018-02-09T07:45:31.470Z,19.52
2018-02-09T07:47:57.592Z,19.61
2018-02-09T07:50:23.650Z,19.46
2018-02-09T07:52:49.748Z,19.45
2018-02-09T07:55:15.793Z,19.89
2018-02-09T07:57:41.897Z,19.94
2018-02-09T08:00:07.993Z,19.78
2018-02-09T08:02:34.072Z,19.85
2018-02-09T08:05:00.232Z,20.06
2018-02-09T08:07:27.279Z,20.31
2018-02-09T08:09:53.350Z,20.59
2018-02-09T08:12:19.481Z,20.84
2018-02-09T08:14:45.580Z,20.83
2018-02-09T08:17:11.682Z,21.03
2018-02-09T08:19:37.766Z,21.19
2018-02-09T08:22:03.817Z,21.70
2018-02-09T08:24:29.880Z,21.46
2018-02-09T08:26:55.985Z,21.53
2018-02-09T08:29:22.020Z,21.49
2018-02-09T08:31:48.074Z,21.54
2018-02-09T08:34:15.240Z,21.68
2018-02-09T08:36:41.260Z,21.59
2018-02-09T08:39:07.314Z,21.61
2018-02-09T08:41:33.384Z,21.66
2018-02-09T08:43:59.483Z,21.83
2018-02-09T08:46:25.579Z,21.80
2018-02-09T08:48:51.650Z,21.91
2018-02-09T08:51:17.712Z,22.04
2018-02-09T08:53:43.773Z,22.12
2018-02-09T08:56:09.872Z,22.29
2018-02-09T08:58:36.064Z,22.03
2018-02-09T09:01:02.144Z,22.03
2018-02-09T09:05:41.556Z,21.11
2018-02-09T09:12:38.429Z,20.46
2018-02-09T09:15:04.490Z,20.57
2018-02-09T09:17:30.675Z,20.61
2018-02-09T09:19:57.757Z,20.42
2018-02-09T09:22:23.796Z,20.34
2018-02-09T09:29:50.846Z,20.56
2018-02-09T09:32:17.090Z,20.45
2018-02-09T09:34:43.288Z,20.92
2018-02-09T09:37:09.361Z,21.17
2018-02-09T09:41:28.880Z,21.53
2018-02-09T09:43:55.103Z,21.46
2018-02-09T09:46:21.242Z,21.52
2018-02-09T09:48:47.328Z,21.83
2018-02-09T09:51:13.478Z,21.75
2018-02-09T09:53:39.588Z,21.90
2018-02-09T09:56:05.773Z,21.93
2018-02-09T09:58:31.905Z,21.95
2018-02-09T10:00:58.089Z,22.34
2018-02-09T10:03:24.236Z,22.22
2018-02-09T10:05:50.684Z,22.17
2018-02-09T10:08:17.001Z,22.31
2018-02-09T10:10:43.330Z,22.23
2018-02-09T10:13:09.994Z,22.25
2018-02-09T10:15:37.186Z,22.16
2018-02-09T10:18:10.676Z,22.27
2018-02-09T10:20:37.754Z,22.37
2018-02-09T10:23:04.020Z,22.34
2018-02-09T10:25:30.310Z,22.20
2018-02-09T10:27:56.565Z,21.75
2018-02-09T10:30:22.777Z,21.75
2018-02-09T10:32:48.823Z,22.06
2018-02-09T10:35:14.863Z,21.92
2018-02-09T10:37:40.946Z,21.92
2018-02-09T10:40:07.208Z,21.88
2018-02-09T10:42:33.347Z,21.88
2018-02-09T10:44:59.418Z,21.90
2018-02-09T10:47:25.491Z,21.94
2018-02-09T10:49:51.573Z,21.93
2018-02-09T10:52:17.597Z,21.80
2018-02-09T10:54:43.702Z,21.85
2018-02-09T10:57:09.950Z,21.87
2018-02-09T10:59:36.049Z,21.73
2018-02-09T11:02:02.227Z,21.67
2018-02-09T11:04:28.306Z,21.60
2018-02-09T11:06:54.412Z,21.63
2018-02-09T11:09:20.545Z,21.67
2018-02-09T11:11:46.627Z,21.67
2018-02-09T11:14:12.765Z,21.76
2018-02-09T11:16:38.899Z,21.81
2018-02-09T11:19:05.088Z,21.89
2018-02-09T11:21:31.172Z,22.07
2018-02-09T11:23:57.244Z,21.88
2018-02-09T11:26:23.295Z,22.10
2018-02-09T11:28:49.404Z,21.97
2018-02-09T11:31:15.484Z,22.18
2018-02-09T11:33:41.898Z,22.27
2018-02-09T11:36:08.011Z,22.30
2018-02-09T11:38:34.415Z,22.51
2018-02-09T11:41:01.201Z,22.56
2018-02-09T11:54:58.647Z,22.71
2018-02-09T12:05:58.227Z,23.25
2018-02-09T12:08:24.396Z,23.22
2018-02-09T12:10:51.069Z,23.48
2018-02-09T12:13:17.404Z,23.09
2018-02-09T12:15:44.119Z,23.44
2018-02-09T12:18:11.175Z,23.58
2018-02-09T12:20:38.048Z,23.42
2018-02-09T12:32:11.822Z,23.51
2018-02-09T12:34:38.704Z,23.51
2018-02-09T12:37:05.055Z,23.35
2018-02-09T14:21:04.742Z,23.04
2018-02-09T14:23:40.904Z,22.99
2018-02-09T14:26:17.653Z,23.12
2018-02-09T14:28:43.689Z,23.44
2018-02-09T15:04:48.788Z,21.38
2018-02-09T15:07:14.788Z,22.69
2018-02-09T15:09:40.849Z,21.75
2018-02-09T15:12:06.859Z,22.39
2018-02-09T15:14:32.907Z,20.13
2018-02-09T16:03:01.388Z,20.80
2018-02-09T16:13:13.527Z,20.31
2018-02-09T16:15:39.542Z,20.70
2018-02-09T17:50:45.168Z,20.28
2018-02-09T17:54:56.289Z,19.27
